sensor_id;sensor_type;location;lat;lon;timestamp;P1;durP1;ratioP1;P2;durP2;ratioP2
14599;SDS011;7386;45.586;12.854;2023-07-02T00:00:13;28.10;;;22.23;;
14599;SDS011;7386;45.586;12.854;2023-07-02T00:02:41;26.50;;;21.08;;
14599;SDS011;7386;45.586;12.854;2023-07-02T00:05:10;27.15;;;22.95;;
14599;SDS011;7386;45.586;12.854;2023-07-02T00:07:38;27.40;;;20.92;;
14599;SDS011;7386;45.586;12.854;2023-07-02T00:10:07;24.33;;;20.13;;
14599;SDS011;7386;45.586;12.854;2023-07-02T00:12:37;26.73;;;21.70;;
14599;SDS011;7386;45.586;12.854;2023-07-02T00:15:05;28.70;;;23.25;;
14599;SDS011;7386;45.586;12.854;2023-07-02T00:17:35;30.10;;;24.23;;
14599;SDS011;7386;45.586;12.854;2023-07-02T00:20:07;30.38;;;23.58;;
14599;SDS011;7386;45.586;12.854;2023-07-02T00:22:40;28.23;;;22.40;;
14599;SDS011;7386;45.586;12.854;2023-07-02T00:25:12;24.73;;;20.00;;
14599;SDS011;7386;45.586;12.854;2023-07-02T00:27:40;29.20;;;20.48;;
14599;SDS011;7386;45.586;12.854;2023-07-02T00:30:09;27.23;;;21.05;;
14599;SDS011;7386;45.586;12.854;2023-07-02T00:32:39;27.35;;;20.75;;
14599;SDS011;7386;45.586;12.854;2023-07-02T00:35:08;29.38;;;22.58;;
14599;SDS011;7386;45.586;12.854;2023-07-02T00:37:36;32.80;;;22.90;;
14599;SDS011;7386;45.586;12.854;2023-07-02T00:40:06;28.08;;;23.25;;
14599;SDS011;7386;45.586;12.854;2023-07-02T00:42:34;28.77;;;22.75;;
14599;SDS011;7386;45.586;12.854;2023-07-02T00:45:03;28.45;;;22.85;;
14599;SDS011;7386;45.586;12.854;2023-07-02T00:47:33;30.25;;;22.50;;
14599;SDS011;7386;45.586;12.854;2023-07-02T00:50:04;30.73;;;22.95;;
14599;SDS011;7386;45.586;12.854;2023-07-02T00:52:34;27.65;;;22.30;;
14599;SDS011;7386;45.586;12.854;2023-07-02T00:55:02;32.70;;;25.67;;
14599;SDS011;7386;45.586;12.854;2023-07-02T00:57:31;28.20;;;23.52;;
14599;SDS011;7386;45.586;12.854;2023-07-02T00:59:59;33.17;;;26.55;;
14599;SDS011;7386;45.586;12.854;2023-07-02T01:02:28;31.50;;;25.10;;
14599;SDS011;7386;45.586;12.854;2023-07-02T01:04:57;31.08;;;24.05;;
14599;SDS011;7386;45.586;12.854;2023-07-02T01:07:28;33.88;;;23.85;;
14599;SDS011;7386;45.586;12.854;2023-07-02T01:09:57;31.80;;;23.55;;
14599;SDS011;7386;45.586;12.854;2023-07-02T01:12:25;34.03;;;24.90;;
14599;SDS011;7386;45.586;12.854;2023-07-02T01:14:55;33.80;;;23.77;;
14599;SDS011;7386;45.586;12.854;2023-07-02T01:17:24;33.28;;;23.40;;
14599;SDS011;7386;45.586;12.854;2023-07-02T01:19:56;34.08;;;25.00;;
14599;SDS011;7386;45.586;12.854;2023-07-02T01:22:27;31.67;;;23.90;;
14599;SDS011;7386;45.586;12.854;2023-07-02T01:24:56;32.42;;;24.95;;
14599;SDS011;7386;45.586;12.854;2023-07-02T01:27:27;34.38;;;25.08;;
14599;SDS011;7386;45.586;12.854;2023-07-02T01:29:56;32.05;;;25.15;;
14599;SDS011;7386;45.586;12.854;2023-07-02T01:32:24;36.58;;;25.90;;
14599;SDS011;7386;45.586;12.854;2023-07-02T01:34:53;32.95;;;25.33;;
14599;SDS011;7386;45.586;12.854;2023-07-02T01:37:23;33.92;;;25.63;;
14599;SDS011;7386;45.586;12.854;2023-07-02T01:39:52;33.95;;;25.40;;
14599;SDS011;7386;45.586;12.854;2023-07-02T01:42:20;37.08;;;26.48;;
14599;SDS011;7386;45.586;12.854;2023-07-02T01:44:49;37.55;;;28.05;;
14599;SDS011;7386;45.586;12.854;2023-07-02T01:47:18;31.80;;;25.10;;
14599;SDS011;7386;45.586;12.854;2023-07-02T01:49:47;34.15;;;25.92;;
14599;SDS011;7386;45.586;12.854;2023-07-02T01:52:16;34.70;;;24.95;;
14599;SDS011;7386;45.586;12.854;2023-07-02T01:54:45;36.33;;;26.45;;
14599;SDS011;7386;45.586;12.854;2023-07-02T01:57:14;36.65;;;26.85;;
14599;SDS011;7386;45.586;12.854;2023-07-02T01:59:42;35.67;;;26.08;;
14599;SDS011;7386;45.586;12.854;2023-07-02T02:02:11;34.40;;;25.33;;
14599;SDS011;7386;45.586;12.854;2023-07-02T02:04:39;34.85;;;25.10;;
14599;SDS011;7386;45.586;12.854;2023-07-02T02:07:08;35.10;;;23.77;;
14599;SDS011;7386;45.586;12.854;2023-07-02T02:09:36;31.63;;;23.42;;
14599;SDS011;7386;45.586;12.854;2023-07-02T02:12:07;35.47;;;24.05;;
14599;SDS011;7386;45.586;12.854;2023-07-02T02:14:35;31.63;;;24.15;;
14599;SDS011;7386;45.586;12.854;2023-07-02T02:17:04;33.92;;;25.23;;
14599;SDS011;7386;45.586;12.854;2023-07-02T02:19:33;31.85;;;23.92;;
14599;SDS011;7386;45.586;12.854;2023-07-02T02:22:01;31.25;;;23.35;;
14599;SDS011;7386;45.586;12.854;2023-07-02T02:24:31;32.15;;;23.75;;
14599;SDS011;7386;45.586;12.854;2023-07-02T02:27:00;32.83;;;23.67;;
14599;SDS011;7386;45.586;12.854;2023-07-02T02:29:29;34.13;;;24.17;;
14599;SDS011;7386;45.586;12.854;2023-07-02T02:31:58;29.45;;;22.38;;
14599;SDS011;7386;45.586;12.854;2023-07-02T02:34:26;29.48;;;22.25;;
14599;SDS011;7386;45.586;12.854;2023-07-02T02:36:55;31.13;;;23.50;;
14599;SDS011;7386;45.586;12.854;2023-07-02T02:39:24;29.23;;;22.40;;
14599;SDS011;7386;45.586;12.854;2023-07-02T02:41:52;27.60;;;20.70;;
14599;SDS011;7386;45.586;12.854;2023-07-02T02:44:21;27.73;;;20.55;;
14599;SDS011;7386;45.586;12.854;2023-07-02T02:46:50;25.13;;;17.92;;
14599;SDS011;7386;45.586;12.854;2023-07-02T02:49:19;24.95;;;18.75;;
14599;SDS011;7386;45.586;12.854;2023-07-02T02:51:48;27.63;;;19.70;;
14599;SDS011;7386;45.586;12.854;2023-07-02T02:54:16;26.15;;;20.10;;
14599;SDS011;7386;45.586;12.854;2023-07-02T02:56:44;28.95;;;21.50;;
14599;SDS011;7386;45.586;12.854;2023-07-02T02:59:13;30.85;;;20.60;;
14599;SDS011;7386;45.586;12.854;2023-07-02T03:01:41;28.60;;;21.55;;
14599;SDS011;7386;45.586;12.854;2023-07-02T03:04:11;29.45;;;20.40;;
14599;SDS011;7386;45.586;12.854;2023-07-02T03:06:40;28.90;;;21.08;;
14599;SDS011;7386;45.586;12.854;2023-07-02T03:09:08;28.35;;;21.52;;
14599;SDS011;7386;45.586;12.854;2023-07-02T03:11:37;27.17;;;21.17;;
14599;SDS011;7386;45.586;12.854;2023-07-02T03:14:06;28.88;;;20.75;;
14599;SDS011;7386;45.586;12.854;2023-07-02T03:16:35;26.55;;;19.45;;
14599;SDS011;7386;45.586;12.854;2023-07-02T03:19:03;26.77;;;19.45;;
14599;SDS011;7386;45.586;12.854;2023-07-02T03:21:33;27.63;;;19.80;;
14599;SDS011;7386;45.586;12.854;2023-07-02T03:24:01;29.27;;;22.15;;
14599;SDS011;7386;45.586;12.854;2023-07-02T03:26:30;28.70;;;21.67;;
14599;SDS011;7386;45.586;12.854;2023-07-02T03:28:58;28.70;;;22.33;;
14599;SDS011;7386;45.586;12.854;2023-07-02T03:31:27;26.25;;;20.60;;
14599;SDS011;7386;45.586;12.854;2023-07-02T03:33:55;27.65;;;20.30;;
14599;SDS011;7386;45.586;12.854;2023-07-02T03:36:24;28.85;;;19.20;;
14599;SDS011;7386;45.586;12.854;2023-07-02T03:38:54;25.95;;;19.40;;
14599;SDS011;7386;45.586;12.854;2023-07-02T03:41:22;25.50;;;19.17;;
14599;SDS011;7386;45.586;12.854;2023-07-02T03:43:51;27.33;;;19.58;;
14599;SDS011;7386;45.586;12.854;2023-07-02T03:46:19;25.15;;;19.48;;
14599;SDS011;7386;45.586;12.854;2023-07-02T03:48:48;27.85;;;19.15;;
14599;SDS011;7386;45.586;12.854;2023-07-02T03:51:16;25.85;;;19.08;;
14599;SDS011;7386;45.586;12.854;2023-07-02T03:53:45;27.40;;;18.55;;
14599;SDS011;7386;45.586;12.854;2023-07-02T03:56:15;24.33;;;18.65;;
14599;SDS011;7386;45.586;12.854;2023-07-02T03:58:43;25.77;;;18.65;;
14599;SDS011;7386;45.586;12.854;2023-07-02T04:01:12;24.08;;;18.77;;
14599;SDS011;7386;45.586;12.854;2023-07-02T04:03:47;27.08;;;19.40;;
14599;SDS011;7386;45.586;12.854;2023-07-02T04:06:16;27.10;;;18.95;;
14599;SDS011;7386;45.586;12.854;2023-07-02T04:08:45;23.88;;;18.58;;
14599;SDS011;7386;45.586;12.854;2023-07-02T04:11:15;26.20;;;18.63;;
14599;SDS011;7386;45.586;12.854;2023-07-02T04:13:43;23.13;;;18.02;;
14599;SDS011;7386;45.586;12.854;2023-07-02T04:16:12;23.70;;;17.58;;
14599;SDS011;7386;45.586;12.854;2023-07-02T04:18:40;20.92;;;16.23;;
14599;SDS011;7386;45.586;12.854;2023-07-02T04:21:09;22.05;;;16.38;;
14599;SDS011;7386;45.586;12.854;2023-07-02T04:23:37;21.33;;;15.82;;
14599;SDS011;7386;45.586;12.854;2023-07-02T04:26:06;20.08;;;15.65;;
14599;SDS011;7386;45.586;12.854;2023-07-02T04:28:56;22.05;;;15.20;;
14599;SDS011;7386;45.586;12.854;2023-07-02T04:31:25;17.60;;;13.60;;
14599;SDS011;7386;45.586;12.854;2023-07-02T04:33:54;16.33;;;13.38;;
14599;SDS011;7386;45.586;12.854;2023-07-02T04:36:22;16.42;;;12.07;;
14599;SDS011;7386;45.586;12.854;2023-07-02T04:38:51;16.00;;;12.55;;
14599;SDS011;7386;45.586;12.854;2023-07-02T04:41:19;16.50;;;12.18;;
14599;SDS011;7386;45.586;12.854;2023-07-02T04:43:48;14.68;;;11.02;;
14599;SDS011;7386;45.586;12.854;2023-07-02T04:46:18;14.35;;;11.23;;
14599;SDS011;7386;45.586;12.854;2023-07-02T04:48:46;16.40;;;10.73;;
14599;SDS011;7386;45.586;12.854;2023-07-02T04:51:15;16.15;;;11.27;;
14599;SDS011;7386;45.586;12.854;2023-07-02T04:53:43;14.75;;;11.05;;
14599;SDS011;7386;45.586;12.854;2023-07-02T04:56:12;12.93;;;9.93;;
14599;SDS011;7386;45.586;12.854;2023-07-02T04:58:40;13.25;;;10.07;;
14599;SDS011;7386;45.586;12.854;2023-07-02T05:01:08;14.10;;;9.77;;
14599;SDS011;7386;45.586;12.854;2023-07-02T05:03:38;11.45;;;8.95;;
14599;SDS011;7386;45.586;12.854;2023-07-02T05:06:07;11.23;;;9.32;;
14599;SDS011;7386;45.586;12.854;2023-07-02T05:08:35;13.18;;;9.30;;
14599;SDS011;7386;45.586;12.854;2023-07-02T05:11:06;12.00;;;8.60;;
14599;SDS011;7386;45.586;12.854;2023-07-02T05:13:35;12.82;;;8.93;;
14599;SDS011;7386;45.586;12.854;2023-07-02T05:16:03;14.20;;;9.38;;
14599;SDS011;7386;45.586;12.854;2023-07-02T05:18:32;12.30;;;8.70;;
14599;SDS011;7386;45.586;12.854;2023-07-02T05:21:02;12.07;;;8.52;;
14599;SDS011;7386;45.586;12.854;2023-07-02T05:23:30;9.70;;;8.02;;
14599;SDS011;7386;45.586;12.854;2023-07-02T05:25:59;9.13;;;7.72;;
14599;SDS011;7386;45.586;12.854;2023-07-02T05:28:27;11.07;;;7.68;;
14599;SDS011;7386;45.586;12.854;2023-07-02T05:30:56;10.25;;;8.32;;
14599;SDS011;7386;45.586;12.854;2023-07-02T05:33:24;11.45;;;8.25;;
14599;SDS011;7386;45.586;12.854;2023-07-02T05:35:53;9.23;;;7.35;;
14599;SDS011;7386;45.586;12.854;2023-07-02T05:38:23;11.05;;;7.95;;
14599;SDS011;7386;45.586;12.854;2023-07-02T05:40:52;10.52;;;7.65;;
14599;SDS011;7386;45.586;12.854;2023-07-02T05:43:20;9.18;;;7.05;;
14599;SDS011;7386;45.586;12.854;2023-07-02T05:45:50;10.13;;;7.78;;
14599;SDS011;7386;45.586;12.854;2023-07-02T05:48:19;9.70;;;7.22;;
14599;SDS011;7386;45.586;12.854;2023-07-02T05:50:47;9.85;;;7.68;;
14599;SDS011;7386;45.586;12.854;2023-07-02T05:53:16;10.20;;;7.78;;
14599;SDS011;7386;45.586;12.854;2023-07-02T05:55:46;11.60;;;7.40;;
14599;SDS011;7386;45.586;12.854;2023-07-02T05:58:15;9.27;;;7.50;;
14599;SDS011;7386;45.586;12.854;2023-07-02T06:00:43;10.73;;;7.60;;
14599;SDS011;7386;45.586;12.854;2023-07-02T06:03:16;10.05;;;6.82;;
14599;SDS011;7386;45.586;12.854;2023-07-02T06:05:46;10.32;;;7.80;;
14599;SDS011;7386;45.586;12.854;2023-07-02T06:08:16;9.38;;;7.43;;
14599;SDS011;7386;45.586;12.854;2023-07-02T06:10:47;10.55;;;8.70;;
14599;SDS011;7386;45.586;12.854;2023-07-02T06:13:16;12.98;;;10.15;;
14599;SDS011;7386;45.586;12.854;2023-07-02T06:15:44;11.82;;;8.63;;
14599;SDS011;7386;45.586;12.854;2023-07-02T06:18:13;12.27;;;8.52;;
14599;SDS011;7386;45.586;12.854;2023-07-02T06:20:43;11.63;;;8.25;;
14599;SDS011;7386;45.586;12.854;2023-07-02T06:23:12;12.95;;;9.15;;
14599;SDS011;7386;45.586;12.854;2023-07-02T06:25:41;11.40;;;8.25;;
14599;SDS011;7386;45.586;12.854;2023-07-02T06:28:11;13.77;;;8.82;;
14599;SDS011;7386;45.586;12.854;2023-07-02T06:30:39;10.00;;;7.70;;
14599;SDS011;7386;45.586;12.854;2023-07-02T06:33:08;12.52;;;8.27;;
14599;SDS011;7386;45.586;12.854;2023-07-02T06:35:36;10.85;;;7.68;;
14599;SDS011;7386;45.586;12.854;2023-07-02T06:38:05;9.85;;;7.35;;
14599;SDS011;7386;45.586;12.854;2023-07-02T06:40:33;8.27;;;6.78;;
14599;SDS011;7386;45.586;12.854;2023-07-02T06:43:02;6.93;;;5.22;;
14599;SDS011;7386;45.586;12.854;2023-07-02T06:45:32;6.90;;;5.00;;
14599;SDS011;7386;45.586;12.854;2023-07-02T06:48:00;5.75;;;4.50;;
14599;SDS011;7386;45.586;12.854;2023-07-02T06:50:29;6.03;;;4.30;;
14599;SDS011;7386;45.586;12.854;2023-07-02T06:52:57;4.95;;;4.18;;
14599;SDS011;7386;45.586;12.854;2023-07-02T06:55:26;7.28;;;4.50;;
14599;SDS011;7386;45.586;12.854;2023-07-02T06:57:54;4.82;;;4.05;;
14599;SDS011;7386;45.586;12.854;2023-07-02T07:00:23;6.20;;;4.32;;
14599;SDS011;7386;45.586;12.854;2023-07-02T07:02:53;4.60;;;4.07;;
14599;SDS011;7386;45.586;12.854;2023-07-02T07:05:21;5.32;;;4.20;;
14599;SDS011;7386;45.586;12.854;2023-07-02T07:07:50;6.20;;;4.68;;
14599;SDS011;7386;45.586;12.854;2023-07-02T07:10:18;5.97;;;4.63;;
14599;SDS011;7386;45.586;12.854;2023-07-02T07:12:47;6.25;;;4.13;;
14599;SDS011;7386;45.586;12.854;2023-07-02T07:15:16;6.88;;;4.55;;
14599;SDS011;7386;45.586;12.854;2023-07-02T07:17:44;5.75;;;4.28;;
14599;SDS011;7386;45.586;12.854;2023-07-02T07:20:14;5.15;;;4.30;;
14599;SDS011;7386;45.586;12.854;2023-07-02T07:22:43;6.38;;;4.50;;
14599;SDS011;7386;45.586;12.854;2023-07-02T07:25:11;5.63;;;4.22;;
14599;SDS011;7386;45.586;12.854;2023-07-02T07:27:42;5.15;;;3.80;;
14599;SDS011;7386;45.586;12.854;2023-07-02T07:30:11;4.35;;;3.85;;
14599;SDS011;7386;45.586;12.854;2023-07-02T07:32:41;4.53;;;3.63;;
14599;SDS011;7386;45.586;12.854;2023-07-02T07:35:09;6.28;;;4.07;;
14599;SDS011;7386;45.586;12.854;2023-07-02T07:37:39;5.90;;;4.40;;
14599;SDS011;7386;45.586;12.854;2023-07-02T07:40:08;5.68;;;3.80;;
14599;SDS011;7386;45.586;12.854;2023-07-02T07:42:36;4.70;;;4.05;;
14599;SDS011;7386;45.586;12.854;2023-07-02T07:45:05;5.55;;;4.13;;
14599;SDS011;7386;45.586;12.854;2023-07-02T07:47:33;4.70;;;3.90;;
14599;SDS011;7386;45.586;12.854;2023-07-02T07:50:02;7.15;;;4.25;;
14599;SDS011;7386;45.586;12.854;2023-07-02T07:52:37;6.70;;;5.20;;
14599;SDS011;7386;45.586;12.854;2023-07-02T07:55:07;5.97;;;4.72;;
14599;SDS011;7386;45.586;12.854;2023-07-02T07:57:36;7.65;;;4.95;;
14599;SDS011;7386;45.586;12.854;2023-07-02T08:00:05;6.63;;;4.85;;
14599;SDS011;7386;45.586;12.854;2023-07-02T08:02:35;5.78;;;4.65;;
14599;SDS011;7386;45.586;12.854;2023-07-02T08:05:04;5.70;;;4.65;;
14599;SDS011;7386;45.586;12.854;2023-07-02T08:07:33;6.07;;;5.10;;
14599;SDS011;7386;45.586;12.854;2023-07-02T08:10:01;10.00;;;5.55;;
14599;SDS011;7386;45.586;12.854;2023-07-02T08:12:31;6.97;;;4.85;;
14599;SDS011;7386;45.586;12.854;2023-07-02T08:15:00;8.05;;;5.63;;
14599;SDS011;7386;45.586;12.854;2023-07-02T08:17:28;8.52;;;6.30;;
14599;SDS011;7386;45.586;12.854;2023-07-02T08:19:57;7.68;;;5.82;;
14599;SDS011;7386;45.586;12.854;2023-07-02T08:22:26;8.95;;;6.63;;
14599;SDS011;7386;45.586;12.854;2023-07-02T08:24:54;8.90;;;7.25;;
14599;SDS011;7386;45.586;12.854;2023-07-02T08:27:23;11.38;;;7.43;;
14599;SDS011;7386;45.586;12.854;2023-07-02T08:29:54;10.93;;;7.47;;
14599;SDS011;7386;45.586;12.854;2023-07-02T08:32:22;11.85;;;7.45;;
14599;SDS011;7386;45.586;12.854;2023-07-02T08:34:50;9.95;;;7.72;;
14599;SDS011;7386;45.586;12.854;2023-07-02T08:37:20;11.98;;;8.00;;
14599;SDS011;7386;45.586;12.854;2023-07-02T08:39:48;10.77;;;8.00;;
14599;SDS011;7386;45.586;12.854;2023-07-02T08:42:17;10.05;;;8.20;;
14599;SDS011;7386;45.586;12.854;2023-07-02T08:44:46;11.07;;;7.80;;
14599;SDS011;7386;45.586;12.854;2023-07-02T08:47:16;9.13;;;7.30;;
14599;SDS011;7386;45.586;12.854;2023-07-02T08:49:45;11.68;;;8.77;;
14599;SDS011;7386;45.586;12.854;2023-07-02T08:52:16;10.93;;;7.57;;
14599;SDS011;7386;45.586;12.854;2023-07-02T08:54:44;12.73;;;7.30;;
14599;SDS011;7386;45.586;12.854;2023-07-02T08:57:13;13.32;;;7.00;;
14599;SDS011;7386;45.586;12.854;2023-07-02T08:59:41;12.55;;;8.43;;
14599;SDS011;7386;45.586;12.854;2023-07-02T09:02:10;11.73;;;8.70;;
14599;SDS011;7386;45.586;12.854;2023-07-02T09:04:39;12.27;;;8.60;;
14599;SDS011;7386;45.586;12.854;2023-07-02T09:07:09;11.00;;;7.32;;
14599;SDS011;7386;45.586;12.854;2023-07-02T09:09:44;13.30;;;8.60;;
14599;SDS011;7386;45.586;12.854;2023-07-02T09:12:23;10.77;;;8.20;;
14599;SDS011;7386;45.586;12.854;2023-07-02T09:14:55;9.18;;;6.65;;
14599;SDS011;7386;45.586;12.854;2023-07-02T09:17:27;13.13;;;9.40;;
14599;SDS011;7386;45.586;12.854;2023-07-02T09:19:58;9.48;;;7.25;;
14599;SDS011;7386;45.586;12.854;2023-07-02T09:22:28;10.88;;;7.15;;
14599;SDS011;7386;45.586;12.854;2023-07-02T09:24:57;11.02;;;8.38;;
14599;SDS011;7386;45.586;12.854;2023-07-02T09:27:35;10.88;;;8.10;;
14599;SDS011;7386;45.586;12.854;2023-07-02T09:30:05;13.60;;;8.85;;
14599;SDS011;7386;45.586;12.854;2023-07-02T09:32:34;13.00;;;9.23;;
14599;SDS011;7386;45.586;12.854;2023-07-02T09:35:04;11.27;;;8.75;;
14599;SDS011;7386;45.586;12.854;2023-07-02T09:37:33;11.60;;;7.60;;
14599;SDS011;7386;45.586;12.854;2023-07-02T09:40:02;11.38;;;8.13;;
14599;SDS011;7386;45.586;12.854;2023-07-02T09:42:33;8.05;;;6.90;;
14599;SDS011;7386;45.586;12.854;2023-07-02T09:45:02;6.88;;;5.70;;
14599;SDS011;7386;45.586;12.854;2023-07-02T09:47:34;10.68;;;6.13;;
14599;SDS011;7386;45.586;12.854;2023-07-02T09:50:05;8.20;;;6.20;;
14599;SDS011;7386;45.586;12.854;2023-07-02T09:52:33;8.98;;;6.38;;
14599;SDS011;7386;45.586;12.854;2023-07-02T09:55:02;8.05;;;6.00;;
14599;SDS011;7386;45.586;12.854;2023-07-02T09:57:31;7.70;;;6.32;;
14599;SDS011;7386;45.586;12.854;2023-07-02T10:00:01;8.93;;;6.35;;
14599;SDS011;7386;45.586;12.854;2023-07-02T10:02:31;9.20;;;7.10;;
14599;SDS011;7386;45.586;12.854;2023-07-02T10:04:59;10.73;;;7.50;;
14599;SDS011;7386;45.586;12.854;2023-07-02T10:07:30;9.23;;;7.05;;
14599;SDS011;7386;45.586;12.854;2023-07-02T10:10:00;9.50;;;7.07;;
14599;SDS011;7386;45.586;12.854;2023-07-02T10:12:29;8.98;;;6.68;;
14599;SDS011;7386;45.586;12.854;2023-07-02T10:14:58;8.80;;;6.65;;
14599;SDS011;7386;45.586;12.854;2023-07-02T10:17:27;9.00;;;6.68;;
14599;SDS011;7386;45.586;12.854;2023-07-02T10:19:58;9.43;;;6.65;;
14599;SDS011;7386;45.586;12.854;2023-07-02T10:22:27;9.13;;;6.40;;
14599;SDS011;7386;45.586;12.854;2023-07-02T10:24:57;8.95;;;6.90;;
14599;SDS011;7386;45.586;12.854;2023-07-02T10:27:33;9.25;;;6.57;;
14599;SDS011;7386;45.586;12.854;2023-07-02T10:30:03;8.40;;;6.80;;
14599;SDS011;7386;45.586;12.854;2023-07-02T10:32:32;10.65;;;6.88;;
14599;SDS011;7386;45.586;12.854;2023-07-02T10:35:02;9.30;;;6.80;;
14599;SDS011;7386;45.586;12.854;2023-07-02T10:37:36;9.45;;;6.95;;
14599;SDS011;7386;45.586;12.854;2023-07-02T10:40:07;10.07;;;6.95;;
14599;SDS011;7386;45.586;12.854;2023-07-02T10:42:46;9.35;;;6.93;;
14599;SDS011;7386;45.586;12.854;2023-07-02T10:45:15;7.85;;;6.32;;
14599;SDS011;7386;45.586;12.854;2023-07-02T10:47:44;8.88;;;7.28;;
14599;SDS011;7386;45.586;12.854;2023-07-02T10:50:16;9.02;;;7.28;;
14599;SDS011;7386;45.586;12.854;2023-07-02T10:52:45;7.88;;;6.53;;
14599;SDS011;7386;45.586;12.854;2023-07-02T10:55:18;11.65;;;7.43;;
14599;SDS011;7386;45.586;12.854;2023-07-02T10:57:46;7.88;;;6.63;;
14599;SDS011;7386;45.586;12.854;2023-07-02T11:00:17;9.60;;;7.07;;
14599;SDS011;7386;45.586;12.854;2023-07-02T11:02:46;7.43;;;6.28;;
14599;SDS011;7386;45.586;12.854;2023-07-02T11:05:15;10.20;;;7.57;;
14599;SDS011;7386;45.586;12.854;2023-07-02T11:07:43;9.45;;;7.65;;
14599;SDS011;7386;45.586;12.854;2023-07-02T11:10:18;8.57;;;6.90;;
14599;SDS011;7386;45.586;12.854;2023-07-02T11:12:47;12.20;;;7.85;;
14599;SDS011;7386;45.586;12.854;2023-07-02T11:15:16;9.45;;;7.15;;
14599;SDS011;7386;45.586;12.854;2023-07-02T11:17:45;10.13;;;6.70;;
14599;SDS011;7386;45.586;12.854;2023-07-02T11:20:14;10.20;;;7.43;;
14599;SDS011;7386;45.586;12.854;2023-07-02T11:22:43;8.60;;;6.70;;
14599;SDS011;7386;45.586;12.854;2023-07-02T11:25:13;7.97;;;6.85;;
14599;SDS011;7386;45.586;12.854;2023-07-02T11:27:43;8.35;;;6.85;;
14599;SDS011;7386;45.586;12.854;2023-07-02T11:30:12;7.38;;;6.25;;
14599;SDS011;7386;45.586;12.854;2023-07-02T11:32:47;8.75;;;6.50;;
14599;SDS011;7386;45.586;12.854;2023-07-02T11:35:16;8.90;;;6.70;;
14599;SDS011;7386;45.586;12.854;2023-07-02T11:37:45;8.38;;;6.85;;
14599;SDS011;7386;45.586;12.854;2023-07-02T11:40:17;9.93;;;6.95;;
14599;SDS011;7386;45.586;12.854;2023-07-02T11:42:48;7.80;;;6.90;;
14599;SDS011;7386;45.586;12.854;2023-07-02T11:45:16;7.30;;;5.93;;
14599;SDS011;7386;45.586;12.854;2023-07-02T11:47:45;9.52;;;6.10;;
14599;SDS011;7386;45.586;12.854;2023-07-02T11:50:13;7.10;;;5.93;;
14599;SDS011;7386;45.586;12.854;2023-07-02T11:52:52;7.68;;;6.05;;
14599;SDS011;7386;45.586;12.854;2023-07-02T11:55:20;7.63;;;6.57;;
14599;SDS011;7386;45.586;12.854;2023-07-02T11:57:50;7.85;;;5.93;;
14599;SDS011;7386;45.586;12.854;2023-07-02T12:00:19;7.30;;;5.97;;
14599;SDS011;7386;45.586;12.854;2023-07-02T12:02:48;7.00;;;5.68;;
14599;SDS011;7386;45.586;12.854;2023-07-02T12:05:18;7.30;;;6.13;;
14599;SDS011;7386;45.586;12.854;2023-07-02T12:07:46;8.50;;;6.00;;
14599;SDS011;7386;45.586;12.854;2023-07-02T12:10:15;7.60;;;6.20;;
14599;SDS011;7386;45.586;12.854;2023-07-02T12:12:43;8.18;;;6.78;;
14599;SDS011;7386;45.586;12.854;2023-07-02T12:15:13;9.30;;;6.50;;
14599;SDS011;7386;45.586;12.854;2023-07-02T12:17:41;7.88;;;6.50;;
14599;SDS011;7386;45.586;12.854;2023-07-02T12:20:10;7.10;;;5.63;;
14599;SDS011;7386;45.586;12.854;2023-07-02T12:22:39;7.00;;;6.25;;
14599;SDS011;7386;45.586;12.854;2023-07-02T12:25:08;7.28;;;5.78;;
14599;SDS011;7386;45.586;12.854;2023-07-02T12:27:36;9.55;;;7.25;;
14599;SDS011;7386;45.586;12.854;2023-07-02T12:30:05;13.55;;;7.63;;
14599;SDS011;7386;45.586;12.854;2023-07-02T12:32:37;8.10;;;6.43;;
14599;SDS011;7386;45.586;12.854;2023-07-02T12:35:06;7.65;;;6.53;;
14599;SDS011;7386;45.586;12.854;2023-07-02T12:37:35;9.02;;;6.80;;
14599;SDS011;7386;45.586;12.854;2023-07-02T12:40:03;8.80;;;6.78;;
14599;SDS011;7386;45.586;12.854;2023-07-02T12:42:32;8.27;;;6.75;;
14599;SDS011;7386;45.586;12.854;2023-07-02T12:45:00;8.43;;;6.28;;
14599;SDS011;7386;45.586;12.854;2023-07-02T12:47:29;8.23;;;6.05;;
14599;SDS011;7386;45.586;12.854;2023-07-02T12:49:59;8.10;;;6.38;;
14599;SDS011;7386;45.586;12.854;2023-07-02T12:52:28;7.82;;;6.45;;
14599;SDS011;7386;45.586;12.854;2023-07-02T12:54:56;9.55;;;6.38;;
14599;SDS011;7386;45.586;12.854;2023-07-02T12:57:24;9.40;;;6.38;;
14599;SDS011;7386;45.586;12.854;2023-07-02T12:59:53;8.43;;;6.18;;
14599;SDS011;7386;45.586;12.854;2023-07-02T13:02:22;8.30;;;5.90;;
14599;SDS011;7386;45.586;12.854;2023-07-02T13:04:51;6.97;;;5.72;;
14599;SDS011;7386;45.586;12.854;2023-07-02T13:07:21;7.88;;;6.00;;
14599;SDS011;7386;45.586;12.854;2023-07-02T13:09:50;7.88;;;6.22;;
14599;SDS011;7386;45.586;12.854;2023-07-02T13:12:18;6.82;;;5.75;;
14599;SDS011;7386;45.586;12.854;2023-07-02T13:14:47;7.68;;;6.05;;
14599;SDS011;7386;45.586;12.854;2023-07-02T13:17:17;7.68;;;5.60;;
14599;SDS011;7386;45.586;12.854;2023-07-02T13:19:45;6.97;;;6.00;;
14599;SDS011;7386;45.586;12.854;2023-07-02T13:22:15;7.43;;;5.90;;
14599;SDS011;7386;45.586;12.854;2023-07-02T13:24:45;7.97;;;6.15;;
14599;SDS011;7386;45.586;12.854;2023-07-02T13:27:15;7.28;;;5.70;;
14599;SDS011;7386;45.586;12.854;2023-07-02T13:29:44;6.30;;;5.45;;
14599;SDS011;7386;45.586;12.854;2023-07-02T13:32:12;12.13;;;7.70;;
14599;SDS011;7386;45.586;12.854;2023-07-02T13:34:40;36.85;;;17.13;;
14599;SDS011;7386;45.586;12.854;2023-07-02T13:37:09;31.63;;;16.02;;
14599;SDS011;7386;45.586;12.854;2023-07-02T13:39:37;21.48;;;12.63;;
14599;SDS011;7386;45.586;12.854;2023-07-02T13:42:07;17.17;;;9.95;;
14599;SDS011;7386;45.586;12.854;2023-07-02T13:44:36;13.32;;;8.18;;
14599;SDS011;7386;45.586;12.854;2023-07-02T13:47:05;9.63;;;7.38;;
14599;SDS011;7386;45.586;12.854;2023-07-02T13:49:33;8.93;;;6.32;;
14599;SDS011;7386;45.586;12.854;2023-07-02T13:52:02;7.07;;;6.13;;
14599;SDS011;7386;45.586;12.854;2023-07-02T13:54:31;8.00;;;6.15;;
14599;SDS011;7386;45.586;12.854;2023-07-02T13:57:03;8.75;;;6.63;;
14599;SDS011;7386;45.586;12.854;2023-07-02T13:59:33;9.68;;;6.43;;
14599;SDS011;7386;45.586;12.854;2023-07-02T14:02:01;8.57;;;6.57;;
14599;SDS011;7386;45.586;12.854;2023-07-02T14:04:30;7.35;;;5.90;;
14599;SDS011;7386;45.586;12.854;2023-07-02T14:06:59;7.63;;;6.15;;
14599;SDS011;7386;45.586;12.854;2023-07-02T14:09:28;7.95;;;6.13;;
14599;SDS011;7386;45.586;12.854;2023-07-02T14:11:56;7.15;;;6.13;;
14599;SDS011;7386;45.586;12.854;2023-07-02T14:14:25;7.40;;;6.38;;
14599;SDS011;7386;45.586;12.854;2023-07-02T14:16:55;7.95;;;6.70;;
14599;SDS011;7386;45.586;12.854;2023-07-02T14:19:23;8.23;;;6.28;;
14599;SDS011;7386;45.586;12.854;2023-07-02T14:21:52;7.20;;;6.35;;
14599;SDS011;7386;45.586;12.854;2023-07-02T14:24:20;9.98;;;7.20;;
14599;SDS011;7386;45.586;12.854;2023-07-02T14:26:49;7.28;;;5.90;;
14599;SDS011;7386;45.586;12.854;2023-07-02T14:29:17;9.18;;;6.47;;
14599;SDS011;7386;45.586;12.854;2023-07-02T14:31:46;8.48;;;6.78;;
14599;SDS011;7386;45.586;12.854;2023-07-02T14:34:16;9.45;;;6.78;;
14599;SDS011;7386;45.586;12.854;2023-07-02T14:36:44;7.93;;;5.85;;
14599;SDS011;7386;45.586;12.854;2023-07-02T14:39:13;8.57;;;6.70;;
14599;SDS011;7386;45.586;12.854;2023-07-02T14:41:41;7.05;;;6.07;;
14599;SDS011;7386;45.586;12.854;2023-07-02T14:44:10;8.75;;;6.45;;
14599;SDS011;7386;45.586;12.854;2023-07-02T14:46:39;9.23;;;7.68;;